Time;durP1;ratioP1;P1;durP2;ratioP2;P2;SDS_P1;SDS_P2;PMS_P1;PMS_P2;Temp;Humidity;BMP_temperature;BMP_pressure;BME280_temperature;BME280_humidity;BME280_pressure;Samples;Min_cycle;Max_cycle;Signal;HPM_P1;HPM_P2
2023/08/11 00:01:30;;;;;;;3.55;2.08;;;15.90;99.90;;;14.77;100.00;98220.78;5000297;28;20842;-72
2023/08/11 00:03:58;;;;;;;4.70;2.72;;;15.80;99.90;;;14.58;100.00;98216.44;5000982;28;20050;-71
2023/08/11 00:06:25;;;;;;;6.43;2.40;;;15.70;99.90;;;14.58;100.00;98228.69;5005801;28;20049;-72
2023/08/11 00:08:55;;;;;;;6.60;2.42;;;15.60;99.90;;;14.60;100.00;98227.69;4999530;28;20533;-72
2023/08/11 00:11:23;;;;;;;5.38;2.58;;;15.60;99.90;;;14.68;100.00;98229.91;5002390;28;20061;-71
2023/08/11 00:13:50;;;;;;;4.72;2.22;;;15.60;99.90;;;14.74;100.00;98226.16;5001191;28;20096;-71
2023/08/11 00:16:18;;;;;;;5.00;2.78;;;15.60;99.90;;;14.69;100.00;98225.53;4983037;28;20054;-71
2023/08/11 00:18:45;;;;;;;7.03;2.20;;;15.50;99.90;;;14.46;100.00;98226.59;5001217;28;20132;-72
2023/08/11 00:21:13;;;;;;;7.38;1.95;;;15.50;99.90;;;14.68;100.00;98223.84;5001955;28;20075;-72
2023/08/11 00:23:42;;;;;;;7.35;2.08;;;15.60;99.90;;;14.66;100.00;98221.28;5003289;28;20060;-71
2023/08/11 00:26:10;;;;;;;4.10;2.03;;;15.60;99.90;;;14.57;100.00;98217.38;5004518;28;20056;-72
2023/08/11 00:28:38;;;;;;;5.28;2.25;;;15.60;99.90;;;14.39;100.00;98224.31;5000313;28;20050;-71
2023/08/11 00:31:06;;;;;;;4.65;2.20;;;15.50;99.90;;;14.16;100.00;98228.00;4987589;28;20109;-72
2023/08/11 00:33:33;;;;;;;8.10;2.67;;;15.30;99.90;;;14.32;100.00;98230.75;5002967;28;20090;-72
2023/08/11 00:36:00;;;;;;;4.88;2.42;;;15.30;99.90;;;14.39;100.00;98228.66;5003945;28;20092;-72
2023/08/11 00:38:40;;;;;;;6.63;2.53;;;15.30;99.90;;;14.47;100.00;98220.47;5018871;28;20046;-70
2023/08/11 00:41:08;;;;;;;5.78;1.92;;;15.30;99.90;;;14.56;100.00;98215.69;4999868;28;20058;-71
2023/08/11 00:43:35;;;;;;;4.30;2.10;;;15.30;99.90;;;14.44;100.00;98211.88;5003092;28;20152;-71
2023/08/11 00:46:11;;;;;;;4.55;2.10;;;15.20;99.90;;;14.21;100.00;98214.75;5003483;28;20538;-72
2023/08/11 00:48:42;;;;;;;8.13;2.65;;;15.00;99.90;;;14.00;100.00;98214.81;4989223;28;20062;-71
2023/08/11 00:51:14;;;;;;;6.57;2.60;;;15.00;99.90;;;14.14;100.00;98215.91;5018208;28;20050;-70
2023/08/11 00:53:41;;;;;;;5.45;2.10;;;14.90;99.90;;;14.01;100.00;98218.28;5003521;28;20813;-70
2023/08/11 00:56:09;;;;;;;4.68;2.65;;;14.80;99.90;;;13.81;100.00;98219.16;4987482;28;20049;-72
2023/08/11 00:58:37;;;;;;;4.68;2.50;;;14.80;99.90;;;13.97;100.00;98219.31;5001067;28;20045;-72
2023/08/11 01:01:04;;;;;;;5.47;2.70;;;14.70;99.90;;;14.08;100.00;98216.22;4989096;28;20054;-72
2023/08/11 01:03:32;;;;;;;6.50;2.50;;;14.80;99.90;;;14.00;100.00;98214.81;5003925;28;20062;-72
2023/08/11 01:06:34;;;;;;;5.30;2.67;;;14.80;99.90;;;13.86;100.00;98219.81;4987433;28;20542;-72
2023/08/11 01:09:35;;;;;;;5.70;2.97;;;14.60;99.90;;;13.99;100.00;98226.16;5001141;28;20103;-72
2023/08/11 01:12:39;;;;;;;4.15;2.53;;;14.70;99.90;;;14.17;100.00;98227.06;5003331;28;20054;-71
2023/08/11 01:15:20;;;;;;;5.82;3.00;;;14.80;99.90;;;14.01;100.00;98219.09;4998159;28;20562;-72
2023/08/11 01:17:49;;;;;;;6.07;2.30;;;14.90;99.90;;;13.95;100.00;98215.94;4984662;28;20132;-72
2023/08/11 01:20:16;;;;;;;5.78;2.92;;;14.90;99.90;;;13.89;100.00;98216.19;5002955;28;20153;-71
2023/08/11 01:22:47;;;;;;;5.05;2.50;;;14.80;99.90;;;13.99;100.00;98220.09;5001472;28;20502;-71
2023/08/11 01:25:15;;;;;;;4.07;2.60;;;14.80;99.90;;;14.15;100.00;98221.06;5004662;28;20212;-71
2023/08/11 01:27:55;;;;;;;5.78;2.72;;;14.80;99.90;;;13.98;100.00;98211.44;5002748;28;20049;-71
2023/08/11 01:30:23;;;;;;;6.07;2.63;;;14.70;99.90;;;13.74;100.00;98221.22;5005452;28;20141;-71
2023/08/11 01:32:51;;;;;;;4.45;2.85;;;14.40;99.90;;;13.36;100.00;98225.50;5006258;28;20054;-71
2023/08/11 01:35:20;;;;;;;5.95;3.40;;;14.30;99.90;;;13.33;100.00;98236.94;4998465;28;20100;-72
2023/08/11 01:38:04;;;;;;;5.07;3.10;;;14.10;99.90;;;13.53;100.00;98248.25;4999822;28;20057;-72
2023/08/11 01:40:31;;;;;;;6.93;3.33;;;14.00;99.90;;;13.44;100.00;98241.69;5000664;28;20502;-72
2023/08/11 01:43:03;;;;;;;4.88;3.00;;;14.10;99.90;;;13.62;100.00;98241.81;5000491;28;20045;-72
2023/08/11 01:45:30;;;;;;;6.47;2.95;;;14.20;99.90;;;13.73;100.00;98248.22;5017247;28;20050;-71
2023/08/11 01:47:57;;;;;;;6.82;2.80;;;14.40;99.90;;;13.84;100.00;98246.88;5004130;28;20050;-72
2023/08/11 01:50:27;;;;;;;6.70;3.35;;;14.40;99.90;;;13.87;100.00;98231.13;4986081;28;20564;-72
2023/08/11 01:52:55;;;;;;;3.70;2.50;;;14.60;99.90;;;13.97;100.00;98235.81;5016666;28;20058;-71
2023/08/11 01:55:25;;;;;;;10.75;2.67;;;14.60;99.90;;;14.01;100.00;98221.72;4986899;28;20752;-71
2023/08/11 01:57:53;;;;;;;5.10;3.00;;;14.70;99.90;;;13.96;100.00;98217.63;5001694;28;20057;-72
2023/08/11 02:00:27;;;;;;;5.43;3.10;;;14.70;99.90;;;13.90;100.00;98218.75;5001213;28;20069;-71
2023/08/11 02:02:56;;;;;;;6.45;2.67;;;14.60;99.90;;;13.96;100.00;98215.03;5017276;28;20068;-71
2023/08/11 02:05:24;;;;;;;4.50;2.13;;;14.60;99.90;;;14.03;100.00;98211.22;4987164;28;20089;-71
2023/08/11 02:07:55;;;;;;;7.00;2.67;;;14.70;99.90;;;14.02;100.00;98202.50;5014654;28;20050;-71
2023/08/11 02:10:23;;;;;;;5.30;2.40;;;14.70;99.90;;;13.98;100.00;98198.38;5012399;28;20530;-72
2023/08/11 02:12:50;;;;;;;6.00;2.50;;;14.80;99.90;;;13.96;100.00;98197.59;5000003;28;20049;-72
2023/08/11 02:15:17;;;;;;;6.60;2.60;;;14.80;99.90;;;13.79;100.00;98194.91;5001815;28;20215;-71
2023/08/11 02:17:44;;;;;;;4.53;2.58;;;14.80;99.90;;;13.66;100.00;98191.16;5000723;28;20054;-72
2023/08/11 02:22:49;;;;;;;6.78;3.00;;;14.60;99.90;;;13.55;100.00;98202.94;5001236;28;20384;-71
2023/08/11 02:25:16;;;;;;;9.45;2.25;;;14.60;99.90;;;13.51;100.00;98205.75;5002848;28;20054;-71
2023/08/11 02:27:43;;;;;;;5.95;3.05;;;14.50;99.90;;;13.43;100.00;98211.28;5014575;28;20185;-71
2023/08/11 02:30:12;;;;;;;10.63;2.70;;;14.40;99.90;;;13.45;100.00;98214.69;5005023;28;20367;-71
2023/08/11 02:32:40;;;;;;;8.50;3.40;;;14.40;99.90;;;13.36;100.00;98213.34;4986129;28;20119;-71
2023/08/11 02:35:08;;;;;;;6.72;2.70;;;14.40;99.90;;;13.33;100.00;98213.47;5002887;28;20053;-71
2023/08/11 02:37:36;;;;;;;3.85;2.30;;;14.30;99.90;;;13.36;100.00;98213.34;5001979;28;20056;-71
2023/08/11 02:40:08;;;;;;;6.15;2.78;;;14.30;99.90;;;13.60;100.00;98213.16;5002308;28;20070;-71
2023/08/11 02:42:42;;;;;;;4.93;2.20;;;14.40;99.90;;;13.42;100.00;98204.41;5001457;28;20137;-71
2023/08/11 02:45:11;;;;;;;4.10;2.22;;;14.30;99.90;;;13.28;100.00;98210.22;4999212;28;20061;-71
2023/08/11 02:47:40;;;;;;;4.57;2.63;;;14.30;99.90;;;13.24;100.00;98213.00;4999711;28;20426;-71
2023/08/11 02:50:08;;;;;;;5.75;2.80;;;14.20;99.90;;;13.09;100.00;98217.97;5002293;28;20049;-71
2023/08/11 02:52:36;;;;;;;5.65;2.33;;;14.20;99.90;;;13.11;100.00;98223.94;5004024;28;20135;-73
2023/08/11 02:55:06;;;;;;;4.47;2.50;;;14.20;99.90;;;13.01;100.00;98227.00;5003462;28;20073;-72
2023/08/11 02:57:34;;;;;;;6.03;2.55;;;14.10;99.90;;;13.02;100.00;98231.28;5018646;28;20057;-72
2023/08/11 03:00:12;;;;;;;7.15;3.00;;;14.00;99.90;;;13.01;100.00;98235.66;5002680;28;20053;-72
2023/08/11 03:02:41;;;;;;;4.88;2.63;;;14.00;99.90;;;12.96;100.00;98241.06;5004023;28;20050;-72
2023/08/11 03:05:10;;;;;;;12.30;2.97;;;14.00;99.90;;;12.92;100.00;98238.66;5015950;28;20112;-72
2023/08/11 03:07:40;;;;;;;9.63;2.53;;;14.00;99.90;;;12.83;100.00;98239.88;4999478;28;20074;-71
2023/08/11 03:10:11;;;;;;;8.85;2.92;;;13.90;99.90;;;12.74;100.00;98238.47;5003371;28;20149;-71
2023/08/11 03:12:39;;;;;;;4.63;2.55;;;13.80;99.90;;;12.89;100.00;98239.63;5017590;28;20502;-71
2023/08/11 03:15:07;;;;;;;4.43;2.60;;;13.80;99.90;;;12.99;100.00;98237.47;5006079;28;20128;-72
2023/08/11 03:17:35;;;;;;;5.47;3.28;;;13.80;99.90;;;13.04;100.00;98238.13;5005052;28;20257;-71
2023/08/11 03:20:11;;;;;;;6.07;2.70;;;13.80;99.90;;;13.22;100.00;98240.88;5005400;28;20542;-71
2023/08/11 03:22:43;;;;;;;7.68;2.90;;;13.90;99.90;;;13.27;100.00;98231.94;5005104;28;20522;-71
2023/08/11 03:25:12;;;;;;;4.47;2.88;;;14.00;99.90;;;13.12;100.00;98228.25;5005011;28;20897;-71
2023/08/11 03:27:41;;;;;;;10.13;2.92;;;14.00;99.90;;;13.12;100.00;98225.63;5001047;28;20061;-68
2023/08/11 03:30:12;;;;;;;4.97;3.22;;;14.00;99.90;;;13.04;100.00;98226.88;4987831;28;20050;-71
2023/08/11 03:32:39;;;;;;;5.15;2.50;;;14.00;99.90;;;12.95;100.00;98233.31;5004053;28;20053;-71
2023/08/11 03:35:09;;;;;;;5.22;2.20;;;13.90;99.90;;;12.83;100.00;98229.44;4997346;28;20065;-70
2023/08/11 03:37:36;;;;;;;4.93;2.28;;;13.90;99.90;;;12.69;100.00;98232.63;5000724;28;20045;-72
2023/08/11 03:40:12;;;;;;;5.05;2.65;;;13.80;99.90;;;12.63;100.00;98242.44;5002029;28;20042;-71
2023/08/11 03:42:42;;;;;;;9.15;2.58;;;13.70;99.90;;;12.59;100.00;98235.66;5004231;28;20565;-72
2023/08/11 03:45:15;;;;;;;8.90;2.60;;;13.60;99.90;;;12.68;100.00;98241.38;4990764;28;20386;-72
2023/08/11 03:47:43;;;;;;;;;;;13.50;99.90;;;12.61;100.00;98237.28;5008639;28;20058;-71
2023/08/11 03:50:11;;;;;;;4.25;2.40;;;13.50;99.90;;;12.63;100.00;98240.69;4990642;28;19929;-72
2023/08/11 03:52:39;;;;;;;4.97;2.28;;;13.50;99.90;;;12.79;100.00;98238.28;5002467;28;20046;-71
2023/08/11 03:55:09;;;;;;;4.78;2.15;;;13.60;99.90;;;12.71;100.00;98243.00;4998138;28;20046;-71
2023/08/11 03:57:38;;;;;;;5.85;2.67;;;13.60;99.90;;;12.84;100.00;98235.50;4990435;28;20050;-71
2023/08/11 04:00:14;;;;;;;7.28;2.28;;;13.70;99.90;;;12.97;100.00;98229.72;4985345;28;20479;-71
2023/08/11 04:02:45;;;;;;;4.47;2.63;;;13.70;99.90;;;12.96;100.00;98227.19;5022789;28;20053;-71
2023/08/11 04:05:13;;;;;;;3.70;2.38;;;13.80;99.90;;;12.89;100.00;98223.16;5002018;28;20050;-71
2023/08/11 04:07:40;;;;;;;7.18;2.33;;;13.70;99.90;;;12.93;100.00;98220.34;4999267;28;20058;-71
2023/08/11 04:10:10;;;;;;;4.93;2.75;;;13.70;99.90;;;12.86;100.00;98224.09;5007000;28;20042;-71
2023/08/11 04:12:38;;;;;;;5.97;2.47;;;13.80;99.90;;;12.92;100.00;98226.47;5004516;28;20050;-71
2023/08/11 04:15:06;;;;;;;6.85;2.50;;;13.80;99.90;;;12.89;100.00;98225.75;5004878;28;20053;-71
2023/08/11 04:17:33;;;;;;;11.40;2.90;;;13.80;99.90;;;12.97;100.00;98223.66;5001391;28;20053;-70
2023/08/11 04:20:01;;;;;;;4.95;2.42;;;13.70;99.90;;;13.11;100.00;98233.50;5001952;28;20157;-72
2023/08/11 04:22:28;;;;;;;5.35;2.40;;;13.80;99.90;;;13.12;100.00;98230.00;5002782;28;20057;-71
2023/08/11 04:25:07;;;;;;;8.82;2.70;;;13.80;99.90;;;12.93;100.00;98236.00;5000651;28;20066;-71
2023/08/11 04:27:34;;;;;;;7.75;2.97;;;13.80;99.90;;;12.77;100.00;98230.56;5002246;28;20053;-71
2023/08/11 04:30:02;;;;;;;4.10;2.80;;;13.80;99.90;;;12.89;100.00;98230.97;5002184;28;20049;-72
2023/08/11 04:32:30;;;;;;;4.75;2.40;;;13.80;99.90;;;12.95;100.00;98231.56;4992121;28;20506;-71
2023/08/11 04:34:58;;;;;;;6.05;2.00;;;13.80;99.90;;;12.87;100.00;98230.19;5003966;28;20046;-71
2023/08/11 04:37:26;;;;;;;7.10;2.72;;;13.70;99.90;;;12.91;100.00;98221.34;5004091;28;20597;-71
2023/08/11 04:39:53;;;;;;;4.57;2.40;;;13.70;99.90;;;13.02;100.00;98226.06;5005836;28;20115;-71
2023/08/11 04:42:20;;;;;;;6.20;2.58;;;13.70;99.90;;;12.93;100.00;98220.34;5003328;28;20086;-72
2023/08/11 04:44:49;;;;;;;11.13;2.35;;;13.80;99.90;;;13.06;100.00;98217.22;5004478;28;20057;-71
2023/08/11 04:47:16;;;;;;;5.38;2.65;;;13.80;99.90;;;13.10;100.00;98218.78;5002630;28;20054;-72
2023/08/11 04:49:43;;;;;;;3.70;1.90;;;13.80;99.90;;;13.25;100.00;98205.09;5003796;28;20442;-71
2023/08/11 04:52:12;;;;;;;4.90;2.65;;;13.90;99.90;;;13.26;100.00;98203.34;5001367;28;20057;-72
2023/08/11 04:54:39;;;;;;;7.07;2.10;;;13.90;99.90;;;13.29;100.00;98211.88;5006021;28;20050;-72
2023/08/11 04:57:07;;;;;;;9.65;2.85;;;14.00;99.90;;;13.02;100.00;98206.06;5001577;28;20121;-72
2023/08/11 04:59:34;;;;;;;6.95;2.92;;;13.90;99.90;;;12.96;100.00;98219.38;4988546;28;20050;-71
2023/08/11 05:02:02;;;;;;;6.63;3.65;;;13.90;99.90;;;13.09;100.00;98222.28;5000142;28;20046;-72
2023/08/11 05:04:30;;;;;;;5.55;3.15;;;13.80;99.90;;;13.13;100.00;98221.25;5004821;28;20050;-72
2023/08/11 05:06:57;;;;;;;7.05;2.90;;;13.80;99.90;;;13.31;100.00;98227.47;4998131;28;20069;-72
2023/08/11 05:09:24;;;;;;;6.13;2.42;;;13.80;99.90;;;13.48;100.00;98225.00;5002456;28;20144;-71
2023/08/11 05:11:52;;;;;;;8.93;2.53;;;13.90;99.90;;;13.54;100.00;98224.69;5021431;28;20060;-71
2023/08/11 05:14:19;;;;;;;4.40;2.80;;;14.00;99.90;;;13.51;100.00;98230.06;5001690;28;20488;-71
2023/08/11 05:16:46;;;;;;;9.15;3.35;;;14.10;99.90;;;13.68;100.00;98213.66;5002934;28;20112;-72
2023/08/11 05:19:13;;;;;;;5.25;3.00;;;14.20;99.90;;;13.67;100.00;98216.34;5005572;28;20054;-70
2023/08/11 05:21:58;;;;;;;8.68;2.55;;;14.30;99.90;;;13.88;100.00;98214.53;5003015;28;20050;-72
2023/08/11 05:24:25;;;;;;;6.68;3.03;;;14.40;99.90;;;13.89;100.00;98222.28;5001742;28;20933;-72
2023/08/11 05:26:52;;;;;;;7.50;3.50;;;14.50;99.90;;;13.95;100.00;98224.59;5003021;28;20469;-71
2023/08/11 05:29:19;;;;;;;6.95;3.28;;;14.50;99.90;;;14.20;100.00;98215.63;5003090;28;20046;-72
2023/08/11 05:31:46;;;;;;;5.32;2.60;;;14.60;99.90;;;14.33;100.00;98208.09;5000846;28;20054;-70
2023/08/11 05:34:14;;;;;;;4.03;2.60;;;14.70;99.90;;;14.58;100.00;98206.00;5001802;28;20045;-72
2023/08/11 05:36:41;;;;;;;5.18;2.80;;;14.70;99.90;;;14.37;100.00;98196.56;5001698;28;20045;-69
2023/08/11 05:39:10;;;;;;;8.35;3.25;;;14.80;99.90;;;14.60;100.00;98204.16;5000868;28;20096;-73
2023/08/11 05:41:37;;;;;;;5.05;3.05;;;14.90;99.90;;;14.94;100.00;98204.25;5003577;28;20052;-72
2023/08/11 05:44:07;;;;;;;4.50;2.75;;;15.00;99.90;;;15.15;100.00;98197.94;4999629;28;20049;-72
2023/08/11 05:46:34;;;;;;;8.13;2.92;;;15.20;99.90;;;15.23;100.00;98187.06;5002259;28;20077;-72
2023/08/11 05:49:01;;;;;;;4.20;2.55;;;15.30;99.90;;;15.39;100.00;98174.03;5000979;28;20112;-72
2023/08/11 05:51:28;;;;;;;5.82;2.80;;;15.40;99.90;;;15.44;100.00;98167.66;5001965;28;20064;-72
2023/08/11 05:53:55;;;;;;;4.63;2.30;;;15.60;99.90;;;15.55;100.00;98163.63;5002037;28;20080;-73
2023/08/11 05:56:23;;;;;;;5.03;2.70;;;15.60;99.90;;;15.51;100.00;98157.72;4996966;28;20148;-73
2023/08/11 05:58:51;;;;;;;4.30;2.28;;;15.60;99.90;;;15.64;100.00;98155.28;4987003;28;20525;-73
2023/08/11 06:01:18;;;;;;;6.15;2.58;;;15.80;99.90;;;15.85;100.00;98158.53;5001153;28;20177;-72
2023/08/11 06:03:45;;;;;;;5.28;2.60;;;15.80;99.90;;;15.73;100.00;98154.81;4991986;28;20052;-71
2023/08/11 06:06:13;;;;;;;6.40;2.55;;;15.90;99.90;;;15.93;100.00;98153.72;4999872;28;20078;-72
2023/08/11 06:08:40;;;;;;;5.55;2.75;;;16.00;99.90;;;15.96;100.00;98156.16;5001039;28;20058;-72
2023/08/11 06:11:07;;;;;;;6.03;2.28;;;16.10;99.90;;;15.99;100.00;98152.56;4999600;28;20049;-72
2023/08/11 06:13:34;;;;;;;5.93;2.10;;;16.10;99.90;;;15.88;100.00;98155.75;4988561;28;20072;-71
2023/08/11 06:16:01;;;;;;;3.97;2.05;;;16.10;99.90;;;16.26;100.00;98156.25;5021055;28;20095;-72
2023/08/11 06:18:28;;;;;;;4.30;2.03;;;16.30;99.90;;;16.47;100.00;98161.19;5001806;28;20046;-72
2023/08/11 06:20:56;;;;;;;5.45;1.70;;;16.50;99.90;;;16.69;100.00;98156.41;5001436;28;20131;-72
2023/08/11 06:23:23;;;;;;;2.83;1.85;;;16.70;99.90;;;16.85;100.00;98158.16;5001774;28;20088;-72
2023/08/11 06:25:55;;;;;;;3.00;1.55;;;16.90;99.90;;;17.08;100.00;98160.25;5002199;28;20073;-73
2023/08/11 06:28:22;;;;;;;4.03;1.50;;;17.10;99.90;;;17.45;100.00;98149.31;5005042;28;20043;-72
2023/08/11 06:30:50;;;;;;;3.50;1.77;;;17.30;99.90;;;17.62;100.00;98158.78;5000152;28;20480;-72
2023/08/11 06:33:17;;;;;;;4.65;2.00;;;17.50;99.90;;;17.44;100.00;98158.13;5002544;28;20549;-73
2023/08/11 06:35:44;;;;;;;4.93;1.30;;;17.80;99.90;;;17.72;100.00;98154.63;5001779;28;20069;-72
2023/08/11 06:38:12;;;;;;;4.22;1.50;;;17.90;99.90;;;17.97;100.00;98149.56;5003598;28;20139;-72
2023/08/11 06:40:39;;;;;;;4.18;1.52;;;18.20;99.90;;;18.17;100.00;98140.38;4998157;28;20058;-72
2023/08/11 06:43:07;;;;;;;2.58;1.40;;;18.30;99.90;;;18.62;100.00;98145.38;5004406;28;20124;-72
2023/08/11 06:45:34;;;;;;;3.05;1.23;;;18.60;99.90;;;18.86;100.00;98142.06;5002841;28;20697;-72
2023/08/11 06:48:01;;;;;;;2.72;1.48;;;18.90;99.90;;;18.99;100.00;98146.41;4998978;28;20045;-72
2023/08/11 06:50:28;;;;;;;2.85;1.35;;;19.10;99.90;;;19.22;100.00;98146.63;5001002;28;20053;-73
2023/08/11 06:52:55;;;;;;;5.75;1.63;;;19.30;99.90;;;19.30;100.00;98151.38;5003399;28;20108;-73
2023/08/11 06:55:26;;;;;;;2.80;1.90;;;19.50;99.90;;;19.38;100.00;98152.50;5000447;28;20046;-73
2023/08/11 06:57:53;;;;;;;4.15;1.98;;;19.60;99.90;;;19.21;100.00;98155.47;4998721;28;20050;-73
2023/08/11 07:00:20;;;;;;;4.72;1.75;;;19.70;99.90;;;19.32;100.00;98155.59;5016079;28;20054;-72
2023/08/11 07:02:48;;;;;;;4.65;1.98;;;19.70;99.90;;;19.46;100.00;98153.78;5001591;28;20042;-73
2023/08/11 07:05:15;;;;;;;3.67;2.30;;;19.80;99.90;;;19.36;100.00;98159.69;5003970;28;20423;-72
2023/08/11 07:07:42;;;;;;;3.88;1.88;;;19.80;99.90;;;19.57;100.00;98154.72;5017928;28;20057;-73
2023/08/11 07:10:11;;;;;;;4.38;1.83;;;19.90;99.90;;;19.79;100.00;98161.13;4992572;28;20821;-73
2023/08/11 07:12:38;;;;;;;3.90;2.05;;;20.00;99.90;;;19.87;100.00;98155.31;5012305;28;20057;-72
2023/08/11 07:15:05;;;;;;;5.72;1.60;;;20.10;99.90;;;19.82;100.00;98150.38;5019978;28;20052;-72
2023/08/11 07:17:33;;;;;;;5.80;2.00;;;20.20;99.90;;;20.04;100.00;98144.41;5011459;28;20058;-72
2023/08/11 07:20:00;;;;;;;4.25;1.77;;;20.30;99.90;;;20.29;100.00;98143.47;4998275;28;20104;-72
2023/08/11 07:22:28;;;;;;;5.00;2.08;;;20.40;99.90;;;20.52;100.00;98141.75;5001449;28;20100;-73
2023/08/11 07:24:55;;;;;;;7.35;1.70;;;20.60;99.90;;;20.56;100.00;98147.66;5000968;28;20061;-73
2023/08/11 07:27:22;;;;;;;5.63;1.92;;;20.80;99.90;;;20.65;100.00;98141.72;5001396;28;20096;-72
2023/08/11 07:29:49;;;;;;;3.08;1.67;;;21.00;99.90;;;20.80;100.00;98142.34;4998707;28;20061;-72
2023/08/11 07:32:16;;;;;;;6.40;1.90;;;21.00;99.90;;;20.81;100.00;98144.88;5003683;28;20057;-73
2023/08/11 07:34:43;;;;;;;6.55;2.03;;;21.20;99.90;;;20.96;100.00;98144.69;5004474;28;20509;-72
2023/08/11 07:37:10;;;;;;;6.25;2.35;;;21.30;99.90;;;21.14;100.00;98142.44;5002751;28;20084;-72
2023/08/11 07:39:37;;;;;;;3.75;1.90;;;21.40;99.90;;;21.25;100.00;98145.09;4989152;28;20093;-72
2023/08/11 07:42:05;;;;;;;8.15;2.33;;;21.50;99.90;;;21.26;100.00;98146.78;5011106;28;20080;-72
2023/08/11 07:44:33;;;;;;;5.68;1.90;;;21.60;99.90;;;21.41;100.00;98150.06;5001763;28;20092;-73
2023/08/11 07:47:02;;;;;;;4.57;1.67;;;21.80;99.90;;;21.71;100.00;98155.59;5004456;28;20255;-72
2023/08/11 07:49:30;;;;;;;4.43;1.95;;;21.90;99.90;;;21.99;100.00;98152.56;5005223;28;20050;-72
2023/08/11 07:51:57;;;;;;;4.22;1.70;;;22.00;99.90;;;21.78;100.00;98150.66;4996712;28;20624;-71
2023/08/11 07:54:24;;;;;;;3.42;1.67;;;22.10;99.90;;;21.71;100.00;98155.59;4996441;28;20056;-72
2023/08/11 07:56:52;;;;;;;3.97;1.50;;;22.10;99.90;;;21.93;100.00;98159.16;4986938;28;20127;-72
2023/08/11 07:59:19;;;;;;;3.45;1.65;;;22.20;99.90;;;22.03;100.00;98165.41;5006474;28;20092;-72
2023/08/11 08:01:46;;;;;;;3.67;1.70;;;22.30;99.90;;;22.13;100.00;98165.50;5004948;28;20411;-72
2023/08/11 08:04:14;;;;;;;5.18;1.95;;;22.30;99.90;;;22.13;100.00;98161.03;5024691;28;20050;-72
2023/08/11 08:06:45;;;;;;;4.65;1.65;;;22.50;99.90;;;22.13;100.00;98166.34;4991167;28;20062;-70
2023/08/11 08:09:14;;;;;;;2.95;1.67;;;22.50;99.90;;;22.36;100.00;98168.97;4987058;28;20054;-71
2023/08/11 08:11:43;;;;;;;5.03;2.05;;;22.70;99.90;;;22.14;100.00;98167.16;4984664;28;20062;-71
2023/08/11 08:14:12;;;;;;;5.05;1.50;;;22.70;99.90;;;22.51;100.00;98167.72;4991480;28;20149;-71
2023/08/11 08:16:46;;;;;;;3.65;1.77;;;22.70;99.90;;;22.68;100.00;98178.69;5003113;28;20427;-71
2023/08/11 08:19:14;;;;;;;6.70;1.90;;;22.80;99.90;;;22.56;100.00;98175.28;5004035;28;20049;-71
2023/08/11 08:21:42;;;;;;;6.20;2.03;;;23.00;99.90;;;22.86;100.00;98178.97;5002805;28;20085;-70
2023/08/11 08:24:14;;;;;;;3.67;1.88;;;23.10;99.90;;;23.21;100.00;98175.19;5017047;28;20516;-71
2023/08/11 08:26:41;;;;;;;6.53;1.90;;;23.20;99.90;;;23.41;100.00;98170.84;5002902;28;20073;-71
2023/08/11 08:29:09;;;;;;;3.50;2.03;;;23.40;99.90;;;23.76;100.00;98160.69;5002275;28;20057;-72
2023/08/11 08:31:36;;;;;;;3.42;1.77;;;23.40;99.90;;;24.72;100.00;98168.16;5001732;28;20056;-69
2023/08/11 08:34:07;;;;;;;2.50;1.60;;;23.70;99.90;;;25.61;100.00;98163.41;5001067;28;20124;-71
2023/08/11 08:36:34;;;;;;;4.68;1.58;;;24.10;99.90;;;26.06;100.00;98164.47;5001264;28;20046;-72
2023/08/11 08:39:01;;;;;;;4.88;1.60;;;24.40;99.90;;;26.31;100.00;98162.06;4998804;28;20057;-72
2023/08/11 08:41:30;;;;;;;4.65;1.25;;;25.00;99.90;;;27.13;100.00;98163.63;5001837;28;20044;-72
2023/08/11 08:44:01;;;;;;;2.80;1.20;;;25.60;99.90;;;28.03;100.00;98157.97;5003096;28;20090;-74
2023/08/11 08:46:31;;;;;;;3.50;1.20;;;26.50;99.90;;;28.69;100.00;98156.31;5018488;28;20045;-74
2023/08/11 08:49:23;;;;;;;2.67;1.42;;;27.50;99.90;;;28.30;100.00;98151.56;5001294;28;20632;-74
2023/08/11 08:51:53;;;;;;;2.80;1.00;;;27.90;99.90;;;28.23;100.00;98147.88;5020064;28;20534;-74
2023/08/11 08:54:21;;;;;;;3.55;1.48;;;28.40;99.90;;;28.76;100.00;98143.94;5004763;28;20061;-74
2023/08/11 08:56:50;;;;;;;1.98;1.00;;;29.40;99.90;;;28.78;100.00;98144.63;4999957;28;20054;-75
2023/08/11 08:59:17;;;;;;;2.50;1.15;;;30.10;99.90;;;28.97;100.00;98143.47;5002801;28;20050;-74
2023/08/11 09:01:44;;;;;;;2.53;1.20;;;30.60;99.60;;;29.58;100.00;98139.34;5004562;28;20046;-72
2023/08/11 09:04:13;;;;;;;2.30;1.20;;;31.20;99.00;;;29.78;100.00;98134.44;5000857;28;20046;-72
2023/08/11 09:06:41;;;;;;;2.72;0.95;;;31.70;98.10;;;29.56;100.00;98138.69;5017838;28;20065;-73
2023/08/11 09:09:10;;;;;;;2.20;1.17;;;32.00;96.40;;;30.09;100.00;98143.50;5004263;28;20054;-73
2023/08/11 09:11:40;;;;;;;3.30;1.35;;;32.50;95.80;;;28.59;100.00;98143.13;5000107;28;20067;-73
2023/08/11 09:14:09;;;;;;;2.00;1.15;;;32.00;94.30;;;29.30;100.00;98141.59;4999433;28;20050;-73
2023/08/11 09:16:38;;;;;;;5.30;1.10;;;31.40;93.90;;;29.22;100.00;98133.59;5001153;28;20065;-73
2023/08/11 09:19:10;;;;;;;3.67;1.17;;;31.60;94.30;;;29.69;100.00;98135.47;4986420;28;20127;-73
2023/08/11 09:21:37;;;;;;;3.15;1.10;;;31.90;94.20;;;29.60;100.00;98144.50;5015830;28;20045;-73
2023/08/11 09:24:11;;;;;;;2.17;1.02;;;32.10;94.10;;;28.65;100.00;98129.09;4999625;28;20098;-73
2023/08/11 09:26:46;;;;;;;2.42;1.30;;;31.10;92.90;;;29.86;100.00;98128.22;4985758;28;20045;-73
2023/08/11 09:29:14;;;;;;;2.30;1.10;;;31.10;94.10;;;29.94;100.00;98128.16;4999674;28;20049;-73
2023/08/11 09:32:04;;;;;;;3.65;1.25;;;31.60;93.40;;;29.94;100.00;98125.50;4999531;28;20053;-72
2023/08/11 09:34:39;;;;;;;2.22;1.20;;;31.60;93.30;;;31.37;100.00;98118.72;5005209;28;20054;-73
2023/08/11 09:37:06;;;;;;;5.28;1.08;;;31.90;92.90;;;31.30;100.00;98124.00;5018090;28;20054;-72
2023/08/11 09:39:36;;;;;;;4.03;1.23;;;32.40;93.40;;;31.77;100.00;98133.53;5002052;28;20058;-72
2023/08/11 09:42:04;;;;;;;2.07;1.03;;;32.90;93.10;;;31.46;100.00;98131.88;4984373;28;20188;-73
2023/08/11 09:44:31;;;;;;;2.63;1.30;;;33.20;92.80;;;31.52;100.00;98135.69;5005937;28;20073;-72
2023/08/11 09:47:01;;;;;;;2.92;1.38;;;32.80;91.20;;;30.30;100.00;98125.00;5002996;28;20066;-73
2023/08/11 09:49:42;;;;;;;2.78;1.00;;;31.30;91.80;;;29.86;100.00;98130.91;5016988;28;20714;-71
2023/08/11 09:52:11;;;;;;;1.40;0.95;;;30.90;93.40;;;30.99;100.00;98134.84;4982530;28;20053;-73
2023/08/11 09:54:43;;;;;;;3.67;0.90;;;31.60;93.20;;;30.79;100.00;98129.13;5000174;28;20057;-71
2023/08/11 09:57:13;;;;;;;2.95;1.00;;;31.00;91.20;;;30.89;100.00;98128.94;4999338;28;20047;-73
2023/08/11 09:59:44;;;;;;;4.82;1.20;;;31.20;92.80;;;30.97;100.00;98120.78;5003142;28;20423;-72
2023/08/11 10:02:17;;;;;;;3.80;1.50;;;31.30;91.80;;;30.59;100.00;98126.97;5002480;28;20045;-72
2023/08/11 10:05:11;;;;;;;3.47;1.27;;;31.60;92.60;;;30.44;100.00;98124.22;5013475;28;20408;-72
2023/08/11 10:07:43;;;;;;;2.45;0.98;;;31.20;92.70;;;30.87;100.00;98122.91;4985320;28;20132;-73
2023/08/11 10:10:18;;;;;;;2.08;1.02;;;30.50;91.50;;;31.11;100.00;98114.63;5016894;28;20053;-72
2023/08/11 10:13:11;;;;;;;3.22;1.13;;;30.10;92.60;;;30.90;100.00;98109.13;4987540;28;20868;-72
2023/08/11 10:15:40;;;;;;;2.25;1.10;;;30.30;92.10;;;31.31;100.00;98100.69;5019298;28;20054;-72
2023/08/11 10:18:09;;;;;;;3.70;1.10;;;30.60;92.60;;;31.71;100.00;98103.94;4998488;28;20078;-73
2023/08/11 10:20:36;;;;;;;2.78;1.30;;;31.30;94.00;;;31.64;100.00;98102.00;5002480;28;20103;-73
2023/08/11 10:23:04;;;;;;;3.33;1.10;;;31.90;91.30;;;30.98;100.00;98114.44;5002086;28;20136;-73
2023/08/11 10:25:32;;;;;;;2.13;0.95;;;31.50;92.00;;;31.20;100.00;98101.97;5001935;28;20057;-73